sensor_id;sensor_type;location;lat;lon;timestamp;P1;durP1;ratioP1;P2;durP2;ratioP2
12052;SDS011;6087;48.982;12.064;2023-08-01T00:01:00;5.68;;;3.40;;
12052;SDS011;6087;48.982;12.064;2023-08-01T00:03:28;4.95;;;3.60;;
12052;SDS011;6087;48.982;12.064;2023-08-01T00:05:55;4.10;;;3.38;;
12052;SDS011;6087;48.982;12.064;2023-08-01T00:08:22;4.65;;;3.30;;
12052;SDS011;6087;48.982;12.064;2023-08-01T00:10:49;6.13;;;3.67;;
12052;SDS011;6087;48.982;12.064;2023-08-01T00:13:16;5.45;;;3.22;;
12052;SDS011;6087;48.982;12.064;2023-08-01T00:15:42;4.00;;;2.97;;
12052;SDS011;6087;48.982;12.064;2023-08-01T00:18:09;3.88;;;3.20;;
12052;SDS011;6087;48.982;12.064;2023-08-01T00:20:38;4.97;;;3.45;;
12052;SDS011;6087;48.982;12.064;2023-08-01T00:23:06;4.85;;;3.47;;
12052;SDS011;6087;48.982;12.064;2023-08-01T00:25:33;5.18;;;3.03;;
12052;SDS011;6087;48.982;12.064;2023-08-01T00:28:00;5.22;;;3.30;;
12052;SDS011;6087;48.982;12.064;2023-08-01T00:30:27;5.05;;;3.30;;
12052;SDS011;6087;48.982;12.064;2023-08-01T00:32:54;3.33;;;3.05;;
12052;SDS011;6087;48.982;12.064;2023-08-01T00:35:20;4.43;;;3.22;;
12052;SDS011;6087;48.982;12.064;2023-08-01T00:37:49;5.13;;;3.35;;
12052;SDS011;6087;48.982;12.064;2023-08-01T00:40:16;5.10;;;3.40;;
12052;SDS011;6087;48.982;12.064;2023-08-01T00:42:43;6.30;;;3.88;;
12052;SDS011;6087;48.982;12.064;2023-08-01T00:45:10;5.80;;;3.83;;
12052;SDS011;6087;48.982;12.064;2023-08-01T00:47:40;6.13;;;4.38;;
12052;SDS011;6087;48.982;12.064;2023-08-01T00:50:08;8.02;;;3.78;;
12052;SDS011;6087;48.982;12.064;2023-08-01T00:52:35;4.93;;;3.88;;
12052;SDS011;6087;48.982;12.064;2023-08-01T00:55:04;6.57;;;3.83;;
12052;SDS011;6087;48.982;12.064;2023-08-01T00:57:32;6.20;;;3.15;;
12052;SDS011;6087;48.982;12.064;2023-08-01T01:00:00;8.80;;;3.88;;
12052;SDS011;6087;48.982;12.064;2023-08-01T01:02:27;4.32;;;3.45;;
12052;SDS011;6087;48.982;12.064;2023-08-01T01:04:54;5.75;;;3.95;;
12052;SDS011;6087;48.982;12.064;2023-08-01T01:07:21;4.47;;;3.60;;
12052;SDS011;6087;48.982;12.064;2023-08-01T01:09:50;3.67;;;3.35;;
12052;SDS011;6087;48.982;12.064;2023-08-01T01:12:18;4.43;;;3.35;;
12052;SDS011;6087;48.982;12.064;2023-08-01T01:14:45;5.78;;;3.65;;
12052;SDS011;6087;48.982;12.064;2023-08-01T01:17:12;4.88;;;3.88;;
12052;SDS011;6087;48.982;12.064;2023-08-01T01:19:39;5.45;;;3.63;;
12052;SDS011;6087;48.982;12.064;2023-08-01T01:22:07;5.20;;;3.28;;
12052;SDS011;6087;48.982;12.064;2023-08-01T01:24:36;5.03;;;3.22;;
12052;SDS011;6087;48.982;12.064;2023-08-01T01:27:04;3.42;;;3.08;;
12052;SDS011;6087;48.982;12.064;2023-08-01T01:29:32;3.75;;;3.22;;
12052;SDS011;6087;48.982;12.064;2023-08-01T01:32:00;4.75;;;3.22;;
12052;SDS011;6087;48.982;12.064;2023-08-01T01:34:27;7.93;;;3.67;;
12052;SDS011;6087;48.982;12.064;2023-08-01T01:36:54;6.53;;;3.13;;
12052;SDS011;6087;48.982;12.064;2023-08-01T01:39:22;5.28;;;3.05;;
12052;SDS011;6087;48.982;12.064;2023-08-01T01:41:49;7.20;;;3.50;;
12052;SDS011;6087;48.982;12.064;2023-08-01T01:44:16;4.25;;;2.92;;
12052;SDS011;6087;48.982;12.064;2023-08-01T01:46:43;3.67;;;3.15;;
12052;SDS011;6087;48.982;12.064;2023-08-01T01:49:10;9.00;;;3.92;;
12052;SDS011;6087;48.982;12.064;2023-08-01T01:51:37;5.72;;;3.10;;
12052;SDS011;6087;48.982;12.064;2023-08-01T01:54:06;4.72;;;2.97;;
12052;SDS011;6087;48.982;12.064;2023-08-01T01:56:37;5.40;;;3.10;;
12052;SDS011;6087;48.982;12.064;2023-08-01T01:59:04;5.75;;;3.28;;
12052;SDS011;6087;48.982;12.064;2023-08-01T02:01:31;5.45;;;2.88;;
12052;SDS011;6087;48.982;12.064;2023-08-01T02:03:58;3.72;;;3.13;;
12052;SDS011;6087;48.982;12.064;2023-08-01T02:06:24;5.75;;;2.85;;
12052;SDS011;6087;48.982;12.064;2023-08-01T02:08:51;5.13;;;2.75;;
12052;SDS011;6087;48.982;12.064;2023-08-01T02:11:18;4.32;;;3.15;;
12052;SDS011;6087;48.982;12.064;2023-08-01T02:13:46;5.70;;;3.15;;
12052;SDS011;6087;48.982;12.064;2023-08-01T02:16:13;5.80;;;3.45;;
12052;SDS011;6087;48.982;12.064;2023-08-01T02:18:40;4.75;;;3.25;;
12052;SDS011;6087;48.982;12.064;2023-08-01T02:21:07;3.83;;;3.00;;
12052;SDS011;6087;48.982;12.064;2023-08-01T02:23:33;6.78;;;3.30;;
12052;SDS011;6087;48.982;12.064;2023-08-01T02:26:02;4.22;;;3.35;;
12052;SDS011;6087;48.982;12.064;2023-08-01T02:28:29;5.50;;;3.53;;
12052;SDS011;6087;48.982;12.064;2023-08-01T02:30:57;5.03;;;3.25;;
12052;SDS011;6087;48.982;12.064;2023-08-01T02:33:24;5.57;;;3.35;;
12052;SDS011;6087;48.982;12.064;2023-08-01T02:35:51;4.88;;;3.60;;
12052;SDS011;6087;48.982;12.064;2023-08-01T02:38:18;3.38;;;3.08;;
12052;SDS011;6087;48.982;12.064;2023-08-01T02:40:47;3.58;;;3.08;;
12052;SDS011;6087;48.982;12.064;2023-08-01T02:43:21;5.57;;;2.95;;
12052;SDS011;6087;48.982;12.064;2023-08-01T02:45:48;4.70;;;3.22;;
12052;SDS011;6087;48.982;12.064;2023-08-01T02:48:16;6.00;;;3.60;;
12052;SDS011;6087;48.982;12.064;2023-08-01T02:50:43;7.03;;;3.65;;
12052;SDS011;6087;48.982;12.064;2023-08-01T02:53:11;4.07;;;3.10;;
12052;SDS011;6087;48.982;12.064;2023-08-01T02:55:38;4.95;;;3.10;;
12052;SDS011;6087;48.982;12.064;2023-08-01T02:58:05;5.05;;;2.95;;
12052;SDS011;6087;48.982;12.064;2023-08-01T03:00:37;3.95;;;3.50;;
12052;SDS011;6087;48.982;12.064;2023-08-01T03:03:05;4.63;;;3.30;;
12052;SDS011;6087;48.982;12.064;2023-08-01T03:05:36;8.80;;;4.05;;
12052;SDS011;6087;48.982;12.064;2023-08-01T03:08:03;7.05;;;4.10;;
12052;SDS011;6087;48.982;12.064;2023-08-01T03:10:30;6.75;;;3.63;;
12052;SDS011;6087;48.982;12.064;2023-08-01T03:12:57;6.25;;;3.67;;
12052;SDS011;6087;48.982;12.064;2023-08-01T03:15:24;7.65;;;3.88;;
12052;SDS011;6087;48.982;12.064;2023-08-01T03:17:51;5.95;;;3.85;;
12052;SDS011;6087;48.982;12.064;2023-08-01T03:20:18;6.80;;;4.00;;
12052;SDS011;6087;48.982;12.064;2023-08-01T03:22:46;4.80;;;3.45;;
12052;SDS011;6087;48.982;12.064;2023-08-01T03:25:13;5.57;;;3.67;;
12052;SDS011;6087;48.982;12.064;2023-08-01T03:27:40;5.88;;;4.40;;
12052;SDS011;6087;48.982;12.064;2023-08-01T03:30:07;6.22;;;3.53;;
12052;SDS011;6087;48.982;12.064;2023-08-01T03:32:34;4.90;;;3.65;;
12052;SDS011;6087;48.982;12.064;2023-08-01T03:35:02;4.57;;;3.38;;
12052;SDS011;6087;48.982;12.064;2023-08-01T03:37:29;5.80;;;3.90;;
12052;SDS011;6087;48.982;12.064;2023-08-01T03:39:57;6.38;;;4.28;;
12052;SDS011;6087;48.982;12.064;2023-08-01T03:42:24;7.07;;;4.15;;
12052;SDS011;6087;48.982;12.064;2023-08-01T03:44:57;3.92;;;3.60;;
12052;SDS011;6087;48.982;12.064;2023-08-01T03:47:24;5.88;;;4.25;;
12052;SDS011;6087;48.982;12.064;2023-08-01T03:49:51;6.13;;;3.75;;
12052;SDS011;6087;48.982;12.064;2023-08-01T03:52:18;5.20;;;3.70;;
12052;SDS011;6087;48.982;12.064;2023-08-01T03:54:45;5.82;;;3.92;;
12052;SDS011;6087;48.982;12.064;2023-08-01T03:57:13;6.10;;;3.72;;
12052;SDS011;6087;48.982;12.064;2023-08-01T03:59:43;5.95;;;3.70;;
12052;SDS011;6087;48.982;12.064;2023-08-01T04:02:12;4.70;;;3.85;;
12052;SDS011;6087;48.982;12.064;2023-08-01T04:04:38;5.40;;;4.13;;
12052;SDS011;6087;48.982;12.064;2023-08-01T04:07:05;3.90;;;3.50;;
12052;SDS011;6087;48.982;12.064;2023-08-01T04:09:33;4.75;;;3.17;;
12052;SDS011;6087;48.982;12.064;2023-08-01T04:12:00;8.73;;;3.85;;
12052;SDS011;6087;48.982;12.064;2023-08-01T04:14:28;6.07;;;4.05;;
12052;SDS011;6087;48.982;12.064;2023-08-01T04:16:55;5.10;;;3.03;;
12052;SDS011;6087;48.982;12.064;2023-08-01T04:19:22;7.35;;;4.10;;
12052;SDS011;6087;48.982;12.064;2023-08-01T04:21:50;5.30;;;3.50;;
12052;SDS011;6087;48.982;12.064;2023-08-01T04:24:30;5.97;;;3.72;;
12052;SDS011;6087;48.982;12.064;2023-08-01T04:26:57;5.88;;;3.58;;
12052;SDS011;6087;48.982;12.064;2023-08-01T04:29:26;5.72;;;3.97;;
12052;SDS011;6087;48.982;12.064;2023-08-01T04:31:56;3.97;;;2.95;;
12052;SDS011;6087;48.982;12.064;2023-08-01T04:34:22;5.75;;;3.15;;
12052;SDS011;6087;48.982;12.064;2023-08-01T04:36:49;5.25;;;3.60;;
12052;SDS011;6087;48.982;12.064;2023-08-01T04:39:16;4.53;;;3.40;;
12052;SDS011;6087;48.982;12.064;2023-08-01T04:41:43;5.72;;;3.50;;
12052;SDS011;6087;48.982;12.064;2023-08-01T04:44:20;5.35;;;3.88;;
12052;SDS011;6087;48.982;12.064;2023-08-01T04:46:48;6.03;;;3.58;;
12052;SDS011;6087;48.982;12.064;2023-08-01T04:49:15;4.32;;;3.47;;
12052;SDS011;6087;48.982;12.064;2023-08-01T04:51:42;8.90;;;3.63;;
12052;SDS011;6087;48.982;12.064;2023-08-01T04:54:09;4.93;;;3.65;;
12052;SDS011;6087;48.982;12.064;2023-08-01T04:56:36;5.18;;;3.58;;
12052;SDS011;6087;48.982;12.064;2023-08-01T04:59:03;5.40;;;3.85;;
12052;SDS011;6087;48.982;12.064;2023-08-01T05:01:29;5.47;;;3.85;;
12052;SDS011;6087;48.982;12.064;2023-08-01T05:03:58;4.45;;;3.38;;
12052;SDS011;6087;48.982;12.064;2023-08-01T05:06:25;8.38;;;4.75;;
12052;SDS011;6087;48.982;12.064;2023-08-01T05:08:52;7.93;;;3.83;;
12052;SDS011;6087;48.982;12.064;2023-08-01T05:11:19;5.97;;;4.28;;
12052;SDS011;6087;48.982;12.064;2023-08-01T05:13:47;5.95;;;3.88;;
12052;SDS011;6087;48.982;12.064;2023-08-01T05:16:14;5.38;;;4.00;;
12052;SDS011;6087;48.982;12.064;2023-08-01T05:18:41;6.40;;;4.30;;
12052;SDS011;6087;48.982;12.064;2023-08-01T05:21:09;4.60;;;3.88;;
12052;SDS011;6087;48.982;12.064;2023-08-01T05:23:36;6.32;;;4.00;;
12052;SDS011;6087;48.982;12.064;2023-08-01T05:26:03;5.00;;;3.80;;
12052;SDS011;6087;48.982;12.064;2023-08-01T05:28:30;6.97;;;4.13;;
12052;SDS011;6087;48.982;12.064;2023-08-01T05:30:57;5.57;;;3.60;;
12052;SDS011;6087;48.982;12.064;2023-08-01T05:33:24;5.75;;;3.75;;
12052;SDS011;6087;48.982;12.064;2023-08-01T05:35:50;6.13;;;3.63;;
12052;SDS011;6087;48.982;12.064;2023-08-01T05:38:19;8.07;;;3.95;;
12052;SDS011;6087;48.982;12.064;2023-08-01T05:40:46;4.47;;;3.63;;
12052;SDS011;6087;48.982;12.064;2023-08-01T05:43:12;5.55;;;3.85;;
12052;SDS011;6087;48.982;12.064;2023-08-01T05:45:39;6.70;;;4.30;;
12052;SDS011;6087;48.982;12.064;2023-08-01T05:48:06;4.35;;;3.55;;
12052;SDS011;6087;48.982;12.064;2023-08-01T05:50:33;4.90;;;4.03;;
12052;SDS011;6087;48.982;12.064;2023-08-01T05:53:00;5.72;;;3.83;;
12052;SDS011;6087;48.982;12.064;2023-08-01T05:55:28;5.72;;;4.07;;
12052;SDS011;6087;48.982;12.064;2023-08-01T05:57:55;6.30;;;4.40;;
12052;SDS011;6087;48.982;12.064;2023-08-01T06:00:22;5.50;;;4.18;;
12052;SDS011;6087;48.982;12.064;2023-08-01T06:02:49;5.28;;;3.95;;
12052;SDS011;6087;48.982;12.064;2023-08-01T06:05:16;5.60;;;4.30;;
12052;SDS011;6087;48.982;12.064;2023-08-01T06:07:43;6.32;;;4.00;;
12052;SDS011;6087;48.982;12.064;2023-08-01T06:10:09;5.30;;;3.20;;
12052;SDS011;6087;48.982;12.064;2023-08-01T06:12:38;5.50;;;3.60;;
12052;SDS011;6087;48.982;12.064;2023-08-01T06:15:05;4.85;;;3.38;;
12052;SDS011;6087;48.982;12.064;2023-08-01T06:17:32;4.82;;;3.95;;
12052;SDS011;6087;48.982;12.064;2023-08-01T06:19:59;7.05;;;4.10;;
12052;SDS011;6087;48.982;12.064;2023-08-01T06:22:29;6.05;;;3.92;;
12052;SDS011;6087;48.982;12.064;2023-08-01T06:24:55;5.38;;;3.58;;
12052;SDS011;6087;48.982;12.064;2023-08-01T06:27:22;8.75;;;3.67;;
12052;SDS011;6087;48.982;12.064;2023-08-01T06:29:52;6.70;;;3.90;;
12052;SDS011;6087;48.982;12.064;2023-08-01T06:32:19;8.20;;;3.83;;
12052;SDS011;6087;48.982;12.064;2023-08-01T06:34:45;4.85;;;3.75;;
12052;SDS011;6087;48.982;12.064;2023-08-01T06:37:12;6.60;;;4.22;;
12052;SDS011;6087;48.982;12.064;2023-08-01T06:39:45;5.38;;;3.80;;
12052;SDS011;6087;48.982;12.064;2023-08-01T06:42:13;4.63;;;3.95;;
12052;SDS011;6087;48.982;12.064;2023-08-01T06:44:41;5.70;;;4.30;;
12052;SDS011;6087;48.982;12.064;2023-08-01T06:47:16;5.72;;;3.70;;
12052;SDS011;6087;48.982;12.064;2023-08-01T06:49:43;4.50;;;3.60;;
12052;SDS011;6087;48.982;12.064;2023-08-01T06:52:10;5.40;;;3.70;;
12052;SDS011;6087;48.982;12.064;2023-08-01T06:54:45;4.95;;;4.03;;
12052;SDS011;6087;48.982;12.064;2023-08-01T06:57:12;5.57;;;3.80;;
12052;SDS011;6087;48.982;12.064;2023-08-01T06:59:39;5.95;;;3.85;;
12052;SDS011;6087;48.982;12.064;2023-08-01T07:02:06;6.72;;;3.85;;
12052;SDS011;6087;48.982;12.064;2023-08-01T07:04:35;4.80;;;3.63;;
12052;SDS011;6087;48.982;12.064;2023-08-01T07:07:03;4.95;;;3.85;;
12052;SDS011;6087;48.982;12.064;2023-08-01T07:09:30;5.30;;;4.22;;
12052;SDS011;6087;48.982;12.064;2023-08-01T07:11:57;5.50;;;4.00;;
12052;SDS011;6087;48.982;12.064;2023-08-01T07:14:23;5.85;;;4.00;;
12052;SDS011;6087;48.982;12.064;2023-08-01T07:16:50;5.88;;;4.50;;
12052;SDS011;6087;48.982;12.064;2023-08-01T07:19:17;6.32;;;3.80;;
12052;SDS011;6087;48.982;12.064;2023-08-01T07:21:45;5.30;;;3.70;;
12052;SDS011;6087;48.982;12.064;2023-08-01T07:24:13;5.75;;;4.35;;
12052;SDS011;6087;48.982;12.064;2023-08-01T07:26:40;5.38;;;3.97;;
12052;SDS011;6087;48.982;12.064;2023-08-01T07:29:07;5.15;;;3.75;;
12052;SDS011;6087;48.982;12.064;2023-08-01T07:31:36;5.57;;;3.88;;
12052;SDS011;6087;48.982;12.064;2023-08-01T07:34:03;5.35;;;4.22;;
12052;SDS011;6087;48.982;12.064;2023-08-01T07:36:30;7.15;;;4.18;;
12052;SDS011;6087;48.982;12.064;2023-08-01T07:38:58;5.28;;;3.65;;
12052;SDS011;6087;48.982;12.064;2023-08-01T07:41:25;5.72;;;4.05;;
12052;SDS011;6087;48.982;12.064;2023-08-01T07:43:52;6.03;;;4.20;;
12052;SDS011;6087;48.982;12.064;2023-08-01T07:46:19;7.68;;;4.00;;
12052;SDS011;6087;48.982;12.064;2023-08-01T07:48:46;4.00;;;3.50;;
12052;SDS011;6087;48.982;12.064;2023-08-01T07:51:23;6.93;;;4.25;;
12052;SDS011;6087;48.982;12.064;2023-08-01T07:53:50;7.63;;;4.03;;
12052;SDS011;6087;48.982;12.064;2023-08-01T07:56:19;5.55;;;4.10;;
12052;SDS011;6087;48.982;12.064;2023-08-01T07:58:46;7.63;;;4.35;;
12052;SDS011;6087;48.982;12.064;2023-08-01T08:01:13;6.15;;;3.75;;
12052;SDS011;6087;48.982;12.064;2023-08-01T08:03:42;6.18;;;4.38;;
12052;SDS011;6087;48.982;12.064;2023-08-01T08:06:09;6.50;;;4.25;;
12052;SDS011;6087;48.982;12.064;2023-08-01T08:08:36;5.68;;;4.30;;
12052;SDS011;6087;48.982;12.064;2023-08-01T08:11:03;5.40;;;4.18;;
12052;SDS011;6087;48.982;12.064;2023-08-01T08:13:39;7.57;;;4.80;;
12052;SDS011;6087;48.982;12.064;2023-08-01T08:16:05;4.90;;;3.70;;
12052;SDS011;6087;48.982;12.064;2023-08-01T08:18:32;5.80;;;4.40;;
12052;SDS011;6087;48.982;12.064;2023-08-01T08:20:59;6.20;;;4.10;;
12052;SDS011;6087;48.982;12.064;2023-08-01T08:23:27;6.38;;;4.05;;
12052;SDS011;6087;48.982;12.064;2023-08-01T08:25:54;5.15;;;3.78;;
12052;SDS011;6087;48.982;12.064;2023-08-01T08:28:27;5.78;;;4.38;;
12052;SDS011;6087;48.982;12.064;2023-08-01T08:30:57;6.70;;;4.28;;
12052;SDS011;6087;48.982;12.064;2023-08-01T08:33:26;4.88;;;4.18;;
12052;SDS011;6087;48.982;12.064;2023-08-01T08:36:00;5.30;;;3.72;;
12052;SDS011;6087;48.982;12.064;2023-08-01T08:38:31;5.97;;;3.75;;
12052;SDS011;6087;48.982;12.064;2023-08-01T08:41:02;5.88;;;4.25;;
12052;SDS011;6087;48.982;12.064;2023-08-01T08:43:36;5.60;;;3.75;;
12052;SDS011;6087;48.982;12.064;2023-08-01T08:46:05;4.63;;;4.15;;
12052;SDS011;6087;48.982;12.064;2023-08-01T08:48:32;5.53;;;4.25;;
12052;SDS011;6087;48.982;12.064;2023-08-01T08:51:01;7.38;;;4.88;;
12052;SDS011;6087;48.982;12.064;2023-08-01T08:53:29;6.13;;;4.00;;
12052;SDS011;6087;48.982;12.064;2023-08-01T08:55:58;6.40;;;4.15;;
12052;SDS011;6087;48.982;12.064;2023-08-01T08:58:26;6.88;;;4.32;;
12052;SDS011;6087;48.982;12.064;2023-08-01T09:00:55;6.90;;;4.30;;
12052;SDS011;6087;48.982;12.064;2023-08-01T09:03:29;5.95;;;4.25;;
12052;SDS011;6087;48.982;12.064;2023-08-01T09:05:58;5.38;;;4.38;;
12052;SDS011;6087;48.982;12.064;2023-08-01T09:08:30;8.05;;;4.55;;
12052;SDS011;6087;48.982;12.064;2023-08-01T09:11:04;6.47;;;4.78;;
12052;SDS011;6087;48.982;12.064;2023-08-01T09:13:31;6.57;;;4.60;;
12052;SDS011;6087;48.982;12.064;2023-08-01T09:15:58;9.60;;;4.85;;
12052;SDS011;6087;48.982;12.064;2023-08-01T09:18:29;8.10;;;4.70;;
12052;SDS011;6087;48.982;12.064;2023-08-01T09:20:56;6.05;;;4.65;;
12052;SDS011;6087;48.982;12.064;2023-08-01T09:23:29;6.20;;;4.72;;
12052;SDS011;6087;48.982;12.064;2023-08-01T09:25:57;6.03;;;4.28;;
12052;SDS011;6087;48.982;12.064;2023-08-01T09:28:27;6.43;;;4.30;;
12052;SDS011;6087;48.982;12.064;2023-08-01T09:30:55;8.02;;;4.57;;
12052;SDS011;6087;48.982;12.064;2023-08-01T09:33:23;6.05;;;4.47;;
12052;SDS011;6087;48.982;12.064;2023-08-01T09:35:51;7.30;;;4.68;;
12052;SDS011;6087;48.982;12.064;2023-08-01T09:38:18;6.47;;;4.25;;
12052;SDS011;6087;48.982;12.064;2023-08-01T09:40:45;4.75;;;4.05;;
12052;SDS011;6087;48.982;12.064;2023-08-01T09:43:13;5.72;;;4.40;;
12052;SDS011;6087;48.982;12.064;2023-08-01T09:45:49;4.60;;;4.20;;
12052;SDS011;6087;48.982;12.064;2023-08-01T09:48:23;7.68;;;3.75;;
12052;SDS011;6087;48.982;12.064;2023-08-01T09:51:02;5.78;;;4.25;;
12052;SDS011;6087;48.982;12.064;2023-08-01T09:53:31;3.97;;;3.42;;
12052;SDS011;6087;48.982;12.064;2023-08-01T09:55:58;6.53;;;4.03;;
12052;SDS011;6087;48.982;12.064;2023-08-01T09:58:26;6.85;;;4.13;;
12052;SDS011;6087;48.982;12.064;2023-08-01T10:00:59;4.25;;;3.38;;
12052;SDS011;6087;48.982;12.064;2023-08-01T10:03:26;5.15;;;3.47;;
12052;SDS011;6087;48.982;12.064;2023-08-01T10:05:56;6.20;;;3.92;;
12052;SDS011;6087;48.982;12.064;2023-08-01T10:08:24;5.00;;;3.85;;
12052;SDS011;6087;48.982;12.064;2023-08-01T10:10:52;4.57;;;3.80;;
12052;SDS011;6087;48.982;12.064;2023-08-01T10:13:22;3.47;;;3.13;;
12052;SDS011;6087;48.982;12.064;2023-08-01T10:15:50;6.10;;;3.65;;
12052;SDS011;6087;48.982;12.064;2023-08-01T10:18:18;4.00;;;3.60;;
12052;SDS011;6087;48.982;12.064;2023-08-01T10:20:44;6.82;;;3.92;;
12052;SDS011;6087;48.982;12.064;2023-08-01T10:23:14;5.63;;;3.95;;
12052;SDS011;6087;48.982;12.064;2023-08-01T10:25:42;5.65;;;4.38;;
12052;SDS011;6087;48.982;12.064;2023-08-01T10:28:09;5.38;;;4.20;;
12052;SDS011;6087;48.982;12.064;2023-08-01T10:30:36;6.43;;;3.78;;
12052;SDS011;6087;48.982;12.064;2023-08-01T10:33:03;4.45;;;3.75;;
12052;SDS011;6087;48.982;12.064;2023-08-01T10:35:34;5.55;;;4.07;;
12052;SDS011;6087;48.982;12.064;2023-08-01T10:38:05;5.47;;;4.30;;
12052;SDS011;6087;48.982;12.064;2023-08-01T10:40:35;7.13;;;4.15;;
12052;SDS011;6087;48.982;12.064;2023-08-01T10:43:02;6.93;;;4.53;;
12052;SDS011;6087;48.982;12.064;2023-08-01T10:45:30;6.38;;;4.85;;
12052;SDS011;6087;48.982;12.064;2023-08-01T10:48:06;7.70;;;3.65;;
12052;SDS011;6087;48.982;12.064;2023-08-01T10:50:34;5.57;;;4.00;;
12052;SDS011;6087;48.982;12.064;2023-08-01T10:53:04;6.43;;;3.65;;
12052;SDS011;6087;48.982;12.064;2023-08-01T10:55:43;6.53;;;4.43;;
12052;SDS011;6087;48.982;12.064;2023-08-01T10:58:12;4.60;;;3.33;;
12052;SDS011;6087;48.982;12.064;2023-08-01T11:00:39;5.03;;;3.67;;
12052;SDS011;6087;48.982;12.064;2023-08-01T11:03:06;4.22;;;3.03;;
12052;SDS011;6087;48.982;12.064;2023-08-01T11:05:33;4.68;;;3.30;;
12052;SDS011;6087;48.982;12.064;2023-08-01T11:08:00;6.28;;;3.85;;
12052;SDS011;6087;48.982;12.064;2023-08-01T11:10:29;5.82;;;3.38;;
12052;SDS011;6087;48.982;12.064;2023-08-01T11:13:03;4.60;;;3.20;;
12052;SDS011;6087;48.982;12.064;2023-08-01T11:15:30;5.13;;;3.63;;
12052;SDS011;6087;48.982;12.064;2023-08-01T11:17:57;5.07;;;3.70;;
12052;SDS011;6087;48.982;12.064;2023-08-01T11:20:24;4.18;;;3.30;;
12052;SDS011;6087;48.982;12.064;2023-08-01T11:22:54;6.35;;;4.07;;
12052;SDS011;6087;48.982;12.064;2023-08-01T11:25:34;6.85;;;4.68;;
12052;SDS011;6087;48.982;12.064;2023-08-01T11:28:05;5.90;;;4.03;;
12052;SDS011;6087;48.982;12.064;2023-08-01T11:30:33;4.18;;;3.78;;
12052;SDS011;6087;48.982;12.064;2023-08-01T11:33:00;4.85;;;3.47;;
12052;SDS011;6087;48.982;12.064;2023-08-01T11:35:28;4.60;;;3.38;;
12052;SDS011;6087;48.982;12.064;2023-08-01T11:37:55;6.53;;;3.25;;
12052;SDS011;6087;48.982;12.064;2023-08-01T11:40:24;7.28;;;3.80;;
12052;SDS011;6087;48.982;12.064;2023-08-01T11:42:55;5.15;;;3.28;;
12052;SDS011;6087;48.982;12.064;2023-08-01T11:45:24;5.60;;;3.70;;
12052;SDS011;6087;48.982;12.064;2023-08-01T11:47:51;5.35;;;3.45;;
12052;SDS011;6087;48.982;12.064;2023-08-01T11:50:22;5.97;;;3.10;;
12052;SDS011;6087;48.982;12.064;2023-08-01T11:52:49;4.22;;;3.75;;
12052;SDS011;6087;48.982;12.064;2023-08-01T11:55:23;4.75;;;4.00;;
12052;SDS011;6087;48.982;12.064;2023-08-01T11:57:54;5.00;;;3.60;;
12052;SDS011;6087;48.982;12.064;2023-08-01T12:00:25;4.55;;;3.65;;
12052;SDS011;6087;48.982;12.064;2023-08-01T12:03:02;5.45;;;3.60;;
12052;SDS011;6087;48.982;12.064;2023-08-01T12:05:30;3.95;;;3.55;;
12052;SDS011;6087;48.982;12.064;2023-08-01T12:08:07;4.25;;;2.80;;
12052;SDS011;6087;48.982;12.064;2023-08-01T12:10:36;5.53;;;3.45;;
12052;SDS011;6087;48.982;12.064;2023-08-01T12:13:04;5.32;;;3.58;;
12052;SDS011;6087;48.982;12.064;2023-08-01T12:15:32;4.75;;;3.67;;
12052;SDS011;6087;48.982;12.064;2023-08-01T12:17:59;4.00;;;3.35;;
12052;SDS011;6087;48.982;12.064;2023-08-01T12:20:26;6.75;;;3.67;;
12052;SDS011;6087;48.982;12.064;2023-08-01T12:22:53;5.00;;;3.47;;
12052;SDS011;6087;48.982;12.064;2023-08-01T12:25:20;4.75;;;3.40;;
12052;SDS011;6087;48.982;12.064;2023-08-01T12:27:47;5.45;;;3.90;;
12052;SDS011;6087;48.982;12.064;2023-08-01T12:30:14;6.93;;;3.95;;
12052;SDS011;6087;48.982;12.064;2023-08-01T12:32:42;4.25;;;3.20;;
12052;SDS011;6087;48.982;12.064;2023-08-01T12:35:10;4.20;;;2.95;;
12052;SDS011;6087;48.982;12.064;2023-08-01T12:37:37;4.07;;;3.00;;
12052;SDS011;6087;48.982;12.064;2023-08-01T12:40:04;5.55;;;3.17;;
12052;SDS011;6087;48.982;12.064;2023-08-01T12:42:32;4.80;;;3.33;;
12052;SDS011;6087;48.982;12.064;2023-08-01T12:44:59;3.50;;;2.85;;
12052;SDS011;6087;48.982;12.064;2023-08-01T12:47:32;4.90;;;3.20;;
12052;SDS011;6087;48.982;12.064;2023-08-01T12:50:00;4.82;;;3.75;;
12052;SDS011;6087;48.982;12.064;2023-08-01T12:52:27;4.25;;;3.22;;
12052;SDS011;6087;48.982;12.064;2023-08-01T12:54:55;3.75;;;3.30;;
12052;SDS011;6087;48.982;12.064;2023-08-01T12:57:22;3.35;;;2.25;;
12052;SDS011;6087;48.982;12.064;2023-08-01T12:59:49;4.95;;;3.13;;
12052;SDS011;6087;48.982;12.064;2023-08-01T13:02:16;3.92;;;2.60;;
12052;SDS011;6087;48.982;12.064;2023-08-01T13:04:43;4.55;;;3.10;;
12052;SDS011;6087;48.982;12.064;2023-08-01T13:07:11;3.58;;;3.00;;
12052;SDS011;6087;48.982;12.064;2023-08-01T13:09:38;2.63;;;2.28;;
12052;SDS011;6087;48.982;12.064;2023-08-01T13:12:06;3.67;;;2.50;;
12052;SDS011;6087;48.982;12.064;2023-08-01T13:14:33;3.58;;;2.63;;
12052;SDS011;6087;48.982;12.064;2023-08-01T13:17:00;3.55;;;2.50;;
12052;SDS011;6087;48.982;12.064;2023-08-01T13:19:28;3.35;;;2.03;;
12052;SDS011;6087;48.982;12.064;2023-08-01T13:21:55;2.72;;;2.22;;
12052;SDS011;6087;48.982;12.064;2023-08-01T13:24:23;4.22;;;2.05;;
12052;SDS011;6087;48.982;12.064;2023-08-01T13:26:50;3.75;;;2.30;;
12052;SDS011;6087;48.982;12.064;2023-08-01T13:29:17;3.97;;;2.33;;
12052;SDS011;6087;48.982;12.064;2023-08-01T13:31:44;1.95;;;1.75;;
12052;SDS011;6087;48.982;12.064;2023-08-01T13:34:11;4.85;;;2.05;;
12052;SDS011;6087;48.982;12.064;2023-08-01T13:36:38;4.10;;;2.40;;
12052;SDS011;6087;48.982;12.064;2023-08-01T13:39:05;2.67;;;2.03;;
12052;SDS011;6087;48.982;12.064;2023-08-01T13:41:33;2.72;;;2.30;;
12052;SDS011;6087;48.982;12.064;2023-08-01T13:44:00;2.17;;;1.70;;
12052;SDS011;6087;48.982;12.064;2023-08-01T13:46:28;2.63;;;2.00;;
12052;SDS011;6087;48.982;12.064;2023-08-01T13:48:55;2.90;;;1.90;;
12052;SDS011;6087;48.982;12.064;2023-08-01T13:51:22;2.28;;;2.00;;
12052;SDS011;6087;48.982;12.064;2023-08-01T13:53:49;2.28;;;2.00;;
12052;SDS011;6087;48.982;12.064;2023-08-01T13:56:16;2.58;;;1.60;;
12052;SDS011;6087;48.982;12.064;2023-08-01T13:58:45;2.22;;;1.50;;
12052;SDS011;6087;48.982;12.064;2023-08-01T14:01:12;2.40;;;2.05;;
12052;SDS011;6087;48.982;12.064;2023-08-01T14:03:39;3.45;;;1.98;;
12052;SDS011;6087;48.982;12.064;2023-08-01T14:06:06;2.35;;;1.48;;
12052;SDS011;6087;48.982;12.064;2023-08-01T14:08:34;2.70;;;1.52;;
12052;SDS011;6087;48.982;12.064;2023-08-01T14:11:02;1.85;;;1.63;;
12052;SDS011;6087;48.982;12.064;2023-08-01T14:13:30;2.85;;;1.52;;
12052;SDS011;6087;48.982;12.064;2023-08-01T14:15:58;1.70;;;1.60;;
12052;SDS011;6087;48.982;12.064;2023-08-01T14:18:26;2.72;;;1.63;;
12052;SDS011;6087;48.982;12.064;2023-08-01T14:20:54;1.98;;;1.60;;
12052;SDS011;6087;48.982;12.064;2023-08-01T14:23:21;1.33;;;1.23;;
12052;SDS011;6087;48.982;12.064;2023-08-01T14:25:48;2.13;;;1.80;;
12052;SDS011;6087;48.982;12.064;2023-08-01T14:28:15;2.67;;;1.60;;
12052;SDS011;6087;48.982;12.064;2023-08-01T14:30:42;1.67;;;1.30;;
12052;SDS011;6087;48.982;12.064;2023-08-01T14:33:10;1.40;;;1.30;;
12052;SDS011;6087;48.982;12.064;2023-08-01T14:35:38;1.58;;;1.48;;
12052;SDS011;6087;48.982;12.064;2023-08-01T14:38:05;2.65;;;1.30;;
12052;SDS011;6087;48.982;12.064;2023-08-01T14:40:32;1.30;;;1.20;;
12052;SDS011;6087;48.982;12.064;2023-08-01T14:43:00;3.80;;;1.27;;
12052;SDS011;6087;48.982;12.064;2023-08-01T14:45:27;1.88;;;1.73;;
12052;SDS011;6087;48.982;12.064;2023-08-01T14:47:54;1.40;;;1.10;;
12052;SDS011;6087;48.982;12.064;2023-08-01T14:50:22;1.35;;;1.10;;
12052;SDS011;6087;48.982;12.064;2023-08-01T14:52:49;1.60;;;1.23;;